Time;durP1;ratioP1;P1;durP2;ratioP2;P2;SDS_P1;SDS_P2;PMS_P1;PMS_P2;Temp;Humidity;BMP_temperature;BMP_pressure;BME280_temperature;BME280_humidity;BME280_pressure;Samples;Min_cycle;Max_cycle;Signal;HPM_P1;HPM_P2
2022/04/18 00:04:14;;;;;;;0.40;0.40;;;;;;;17.28;58.57;96802.03;10330344;28;20038;-22
2022/04/18 00:09:15;;;;;;;0.30;0.30;;;;;;;17.31;58.14;96780.97;10341802;28;20033;-21
2022/04/18 00:14:15;;;;;;;0.30;0.30;;;;;;;17.32;55.08;96802.91;10354996;28;20520;-22
2022/04/18 00:19:16;;;;;;;0.33;0.30;;;;;;;17.17;55.31;96801.09;10329708;28;20549;-22
2022/04/18 00:24:19;;;;;;;0.30;0.30;;;;;;;17.12;55.34;96789.28;10329638;28;20060;-21
2022/04/18 00:29:20;;;;;;;0.28;0.28;;;;;;;17.10;55.46;96785.91;10329696;28;20062;-21
2022/04/18 00:34:20;;;;;;;0.23;0.23;;;;;;;17.10;55.14;96790.94;10327278;28;20053;-22
2022/04/18 00:39:21;;;;;;;0.30;0.30;;;;;;;17.07;55.06;96785.88;10329270;28;20485;-21
2022/04/18 00:44:21;;;;;;;0.22;0.22;;;;;;;17.06;55.36;96779.97;10360421;28;20038;-23
2022/04/18 00:49:22;;;;;;;0.40;0.20;;;;;;;17.07;55.45;96783.34;10353692;28;20045;-22
2022/04/18 00:54:23;;;;;;;0.20;0.20;;;;;;;17.05;55.56;96767.31;10328259;28;20088;-21
2022/04/18 00:59:24;;;;;;;0.30;0.30;;;;;;;17.07;55.38;96755.53;10327986;28;20038;-22
2022/04/18 01:04:24;;;;;;;0.40;0.40;;;;;;;17.05;55.00;96749.59;10327483;28;20519;-21
2022/04/18 01:09:25;;;;;;;0.30;0.30;;;;;;;17.21;58.36;96751.38;10340633;28;20034;-22
2022/04/18 01:14:25;;;;;;;0.50;0.45;;;;;;;17.33;58.65;96743.88;10365899;28;20041;-22
2022/04/18 01:19:31;;;;;;;0.30;0.30;;;;;;;17.37;56.75;96740.53;10352482;28;20042;-22
2022/04/18 01:30:17;;;;;;;0.20;0.20;;;;;;;17.16;54.94;96740.41;10319678;28;20092;-22
2022/04/18 01:35:18;;;;;;;0.30;0.28;;;;;;;17.13;55.05;96730.25;10344801;28;20033;-22
2022/04/18 01:40:19;;;;;;;1.33;0.30;;;;;;;17.12;55.36;96728.56;10327225;28;20061;-21
2022/04/18 01:45:19;;;;;;;0.30;0.30;;;;;;;17.11;55.21;96724.34;10325900;28;20027;-21
2022/04/18 01:50:28;;;;;;;0.28;0.28;;;;;;;17.11;55.01;96727.72;10364338;28;20125;-21
2022/04/18 01:55:29;;;;;;;0.15;0.15;;;;;;;17.11;55.39;96726.88;10365658;28;20061;-22
2022/04/18 02:00:32;;;;;;;0.20;0.20;;;;;;;17.09;55.11;96724.31;10341305;28;20485;-21
2022/04/18 02:05:33;;;;;;;0.20;0.20;;;;;;;17.10;55.27;96726.03;10348308;28;20044;-21
2022/04/18 02:10:35;;;;;;;0.20;0.20;;;;;;;17.10;55.33;96721.00;10365329;28;20044;-21
2022/04/18 02:15:36;;;;;;;0.20;0.20;;;;;;;17.15;57.32;96715.94;10365768;28;20401;-21
2022/04/18 02:20:38;;;;;;;0.40;0.40;;;;;;;17.31;58.76;96705.91;10348638;28;20058;-21
2022/04/18 02:25:39;;;;;;;0.40;0.40;;;;;;;17.38;58.29;96706.78;10334182;28;20057;-21
2022/04/18 02:30:45;;;;;;;0.40;0.40;;;;;;;17.27;55.27;96708.41;10332959;28;20034;-22
2022/04/18 02:35:45;;;;;;;0.40;0.40;;;;;;;17.20;55.24;96710.06;10332185;28;20069;-22
2022/04/18 02:40:46;;;;;;;0.20;0.20;;;;;;;17.18;55.24;96705.84;10332675;28;20081;-22
2022/04/18 02:45:47;;;;;;;0.10;0.10;;;;;;;17.14;55.33;96699.09;10331423;28;20034;-21
2022/04/18 02:50:53;;;;;;;0.20;0.20;;;;;;;17.15;55.24;96690.66;10332051;28;20133;-21
2022/04/18 02:55:58;;;;;;;0.32;0.32;;;;;;;17.13;55.44;96694.84;10331717;28;20137;-23
2022/04/18 03:00:59;;;;;;;0.20;0.20;;;;;;;17.12;54.90;96688.94;10331515;28;20150;-21
2022/04/18 03:06:00;;;;;;;0.38;0.38;;;;;;;17.12;55.18;96680.50;10330728;28;20531;-22
2022/04/18 03:11:05;;;;;;;0.20;0.20;;;;;;;17.12;55.20;96673.78;10357094;28;20029;-22
2022/04/18 03:16:06;;;;;;;0.60;0.40;;;;;;;17.11;55.12;96673.75;10370479;28;20034;-21
2022/04/18 03:21:10;;;;;;;0.22;0.22;;;;;;;17.11;55.12;96677.16;10343601;28;20524;-21
2022/04/18 03:26:11;;;;;;;0.40;0.30;;;;;;;17.30;58.53;96665.41;10330072;28;20117;-21
2022/04/18 03:31:34;;;;;;;0.40;0.40;;;;;;;17.36;58.48;96657.88;10329738;28;20108;-22
2022/04/18 03:41:54;;;;;;;0.28;0.20;;;;;;;17.23;54.87;96661.19;10345908;28;20041;-23
2022/04/18 03:46:55;;;;;;;0.13;0.10;;;;;;;17.25;55.14;96659.50;10329764;28;20576;-21
2022/04/18 03:51:55;;;;;;;0.63;0.25;;;;;;;17.25;54.78;96657.78;10329487;28;20031;-23
2022/04/18 03:56:56;;;;;;;0.20;0.20;;;;;;;17.29;54.81;96646.00;10347700;28;20041;-22
2022/04/18 04:02:22;;;;;;;0.20;0.20;;;;;;;17.30;54.96;96645.16;10369499;28;20791;-21
2022/04/18 04:07:26;;;;;;;0.40;0.40;;;;;;;17.32;55.13;96648.56;10330692;28;20042;-21
2022/04/18 04:12:42;;;;;;;0.38;0.30;;;;;;;17.33;54.71;96647.72;10366656;28;20192;-21
2022/04/18 04:18:05;;;;;;;0.20;0.20;;;;;;;17.33;54.65;96645.19;10365852;28;20048;-22
2022/04/18 04:23:05;;;;;;;0.47;0.40;;;;;;;17.23;54.81;96630.81;10329911;28;20034;-22
2022/04/18 04:28:23;;;;;;;0.50;0.40;;;;;;;17.37;56.22;96649.44;10336947;28;20037;-22
2022/04/18 04:33:24;;;;;;;0.45;0.30;;;;;;;17.43;57.81;96644.41;10361645;28;20034;-22
2022/04/18 04:38:27;;;;;;;0.30;0.20;;;;;;;17.42;57.78;96646.06;10327692;28;20436;-22
2022/04/18 04:43:29;;;;;;;0.30;0.30;;;;;;;17.43;55.00;96636.81;10327017;28;20037;-22
2022/04/18 04:48:32;;;;;;;0.32;0.20;;;;;;;17.39;54.79;96642.69;10327204;28;20505;-23
2022/04/18 04:53:39;;;;;;;0.30;0.30;;;;;;;17.38;54.65;96638.47;10327558;28;20034;-22
2022/04/18 04:58:41;;;;;;;0.40;0.40;;;;;;;17.38;54.54;96649.44;10326394;28;20517;-22
2022/04/18 05:03:43;;;;;;;0.40;0.30;;;;;;;17.38;54.87;96641.84;10325677;28;20031;-21
2022/04/18 05:08:44;;;;;;;0.50;0.40;;;;;;;17.36;54.84;96640.16;10333987;28;20026;-25
2022/04/18 05:13:44;;;;;;;0.40;0.30;;;;;;;17.37;55.13;96645.22;10340981;28;20038;-22
2022/04/18 05:18:46;;;;;;;0.40;0.40;;;;;;;17.35;54.92;96640.97;10325872;28;20304;-21
2022/04/18 05:23:48;;;;;;;0.43;0.40;;;;;;;17.38;54.61;96635.94;10326788;28;20030;-21
2022/04/18 05:28:49;;;;;;;0.20;0.20;;;;;;;17.38;54.41;96635.94;10327600;28;20452;-22
2022/04/18 05:33:50;;;;;;;0.30;0.30;;;;;;;17.36;54.86;96635.09;10325215;28;20073;-21
2022/04/18 05:39:00;;;;;;;0.50;0.40;;;;;;;17.44;57.67;96628.38;10327083;28;20042;-22
2022/04/18 05:44:14;;;;;;;0.50;0.50;;;;;;;17.48;57.60;96640.22;10325447;28;20505;-21
2022/04/18 05:49:24;;;;;;;0.40;0.40;;;;;;;17.42;55.19;96637.66;10325629;28;20497;-22
2022/04/18 05:54:25;;;;;;;0.30;0.30;;;;;;;17.39;54.95;96635.09;10331725;28;20187;-21
2022/04/18 05:59:34;;;;;;;0.40;0.40;;;;;;;17.36;54.71;96632.56;10334008;28;20132;-21
2022/04/18 06:04:44;;;;;;;0.30;0.20;;;;;;;17.33;54.73;96630.00;10335156;28;20492;-22
2022/04/18 06:09:56;;;;;;;0.20;0.20;;;;;;;17.33;54.83;96642.66;10352051;28;20054;-22
2022/04/18 06:14:56;;;;;;;0.33;0.30;;;;;;;17.29;54.89;96638.41;10347787;28;20038;-22
2022/04/18 06:19:57;;;;;;;0.20;0.20;;;;;;;17.29;54.86;96628.28;10350693;28;20294;-22
2022/04/18 06:24:58;;;;;;;0.20;0.20;;;;;;;17.29;54.91;96635.88;10373048;28;20036;-22
2022/04/18 06:30:01;;;;;;;0.20;0.20;;;;;;;17.27;55.03;96629.97;10348314;28;20384;-22
2022/04/18 06:35:11;;;;;;;0.30;0.20;;;;;;;17.28;54.79;96626.59;10331993;28;20040;-22
2022/04/18 06:40:12;;;;;;;0.60;0.30;;;;;;;17.27;54.89;96620.72;10332565;28;20034;-22
2022/04/18 06:45:14;;;;;;;0.40;0.40;;;;;;;17.42;57.85;96617.41;10330295;28;20064;-22
2022/04/18 06:50:16;;;;;;;0.28;0.28;;;;;;;17.48;57.71;96614.91;10329757;28;20112;-22
2022/04/18 06:55:19;;;;;;;0.20;0.20;;;;;;;17.42;55.26;96609.81;10330920;28;20058;-21
2022/04/18 07:00:20;;;;;;;0.30;0.30;;;;;;;17.36;55.01;96614.84;10328839;28;20038;-22
2022/04/18 07:05:21;;;;;;;0.45;0.30;;;;;;;17.32;54.89;96608.06;10328580;28;20126;-22
2022/04/18 07:10:21;;;;;;;0.43;0.30;;;;;;;17.30;54.87;96609.72;10350680;28;20476;-23
2022/04/18 07:15:22;;;;;;;0.20;0.20;;;;;;;17.29;54.64;96621.56;10343224;28;20073;-24
2022/04/18 07:20:23;;;;;;;0.20;0.20;;;;;;;17.28;55.19;96613.94;10328478;28;20026;-22
2022/04/18 07:25:24;;;;;;;0.20;0.20;;;;;;;17.28;54.81;96621.53;10328996;28;20034;-25
2022/04/18 07:30:40;;;;;;;0.10;0.10;;;;;;;17.20;55.06;96616.47;10344555;28;20356;-25
2022/04/18 07:35:42;;;;;;;0.22;0.22;;;;;;;17.25;55.13;96619.84;10328216;28;20113;-23
2022/04/18 07:40:46;;;;;;;0.50;0.30;;;;;;;17.26;55.04;96621.53;10327929;28;20085;-23
2022/04/18 07:45:49;;;;;;;0.28;0.28;;;;;;;17.25;54.85;96632.47;10339586;28;95569;-22
2022/04/18 07:56:10;;;;;;;0.30;0.30;;;;;;;17.47;57.59;96638.50;10345569;28;20034;-23
2022/04/18 08:01:10;;;;;;;0.28;0.28;;;;;;;17.45;55.58;96632.59;10328929;28;20041;-22
2022/04/18 08:06:11;;;;;;;0.30;0.30;;;;;;;17.37;54.92;96629.19;10330591;28;20157;-22
2022/04/18 08:11:21;;;;;;;1.45;0.22;;;;;;;17.32;54.86;96630.84;10356860;28;20095;-23
2022/04/18 08:16:24;;;;;;;0.15;0.15;;;;;;;17.29;54.79;96630.81;10344179;28;20317;-23
2022/04/18 08:21:30;;;;;;;0.40;0.40;;;;;;;17.26;54.99;96613.94;10334543;28;20065;-22
2022/04/18 08:26:31;;;;;;;0.20;0.20;;;;;;;17.26;54.83;96621.53;10344546;28;20073;-22
2022/04/18 08:31:35;;;;;;;0.40;0.30;;;;;;;17.26;54.92;96620.69;10327881;28;20034;-23
2022/04/18 08:36:41;;;;;;;0.30;0.30;;;;;;;17.25;55.03;96624.91;10328704;28;20035;-22
2022/04/18 08:41:48;;;;;;;0.32;0.32;;;;;;;17.25;54.94;96624.91;10327934;28;20034;-23
2022/04/18 08:46:56;;;;;;;0.30;0.30;;;;;;;17.25;54.95;96624.06;10327407;28;20041;-23
2022/04/18 08:57:24;;;;;;;;;;;;;;;17.40;57.51;96624.16;10344562;28;20038;-22
2022/04/18 09:02:27;;;;;;;0.30;0.30;;;;;;;17.50;57.32;96625.88;10367151;28;19948;-22
2022/04/18 09:07:59;;;;;;;0.35;0.32;;;;;;;17.46;55.77;96621.63;10364368;28;20155;-23
2022/04/18 09:13:10;;;;;;;0.35;0.35;;;;;;;17.36;55.13;96617.38;10342816;28;20072;-23
2022/04/18 09:18:24;;;;;;;0.32;0.32;;;;;;;17.31;54.65;96619.03;10331363;28;20053;-22
2022/04/18 09:23:35;;;;;;;0.25;0.25;;;;;;;17.30;54.75;96625.78;10367115;28;20362;-23
2022/04/18 09:29:04;;;;;;;0.20;0.20;;;;;;;17.28;54.89;96619.00;10353376;28;20065;-23
2022/04/18 09:34:05;;;;;;;0.57;0.25;;;;;;;17.26;55.12;96608.88;10336291;28;20121;-22
2022/04/18 09:39:06;;;;;;;0.20;0.20;;;;;;;17.26;55.11;96605.50;10366111;28;20068;-23
2022/04/18 09:44:30;;;;;;;0.20;0.20;;;;;;;17.26;54.82;96596.22;10337373;28;20046;-23
2022/04/18 09:49:38;;;;;;;0.20;0.20;;;;;;;17.24;54.84;96594.56;10340210;28;20396;-23
2022/04/18 09:54:59;;;;;;;0.30;0.30;;;;;;;17.26;54.78;96585.28;10366145;28;20054;-23
2022/04/18 09:59:59;;;;;;;0.30;0.30;;;;;;;17.24;54.93;96586.97;10338103;28;20437;-23
2022/04/18 10:05:01;;;;;;;0.40;0.37;;;;;;;17.42;57.49;96587.84;10326988;28;20048;-22
2022/04/18 10:10:02;;;;;;;0.30;0.30;;;;;;;17.53;57.30;96590.41;10344506;28;20289;-23
2022/04/18 10:15:03;;;;;;;0.20;0.20;;;;;;;17.48;55.44;96587.88;10336337;28;20039;-22
2022/04/18 10:20:27;;;;;;;0.28;0.28;;;;;;;17.38;54.89;96578.59;10345035;28;20500;-22
2022/04/18 10:25:46;;;;;;;0.20;0.20;;;;;;;17.37;54.55;96573.50;10363987;28;20125;-22
2022/04/18 10:30:52;;;;;;;0.25;0.25;;;;;;;17.37;55.03;96576.03;10335429;28;20074;-22
2022/04/18 10:36:04;;;;;;;0.67;0.37;;;;;;;17.35;54.85;96565.06;10326071;28;20042;-22
2022/04/18 10:41:41;;;;;;;0.35;0.30;;;;;;;17.36;54.77;96556.66;10333022;28;20372;-23
2022/04/18 10:47:03;;;;;;;0.17;0.10;;;;;;;17.34;54.78;96549.00;10332978;28;20512;-22
2022/04/18 10:52:09;;;;;;;0.20;0.20;;;;;;;17.35;54.95;96554.94;10333596;28;20034;-24
2022/04/18 10:57:12;;;;;;;0.35;0.17;;;;;;;17.34;55.29;96553.25;10333158;28;20034;-22
2022/04/18 11:02:44;;;;;;;0.20;0.20;;;;;;;17.33;54.85;96541.44;10332783;28;20089;-23
2022/04/18 11:07:44;;;;;;;0.40;0.40;;;;;;;17.37;56.23;96538.94;10373045;28;20045;-22
2022/04/18 11:12:45;;;;;;;0.65;0.35;;;;;;;17.54;57.37;96538.94;10372009;28;20029;-22
2022/04/18 11:17:45;;;;;;;0.40;0.30;;;;;;;17.57;56.96;96526.31;10371903;28;20038;-23
2022/04/18 11:23:18;;;;;;;0.30;0.30;;;;;;;17.48;54.99;96516.19;10331753;28;20041;-22
2022/04/18 11:28:18;;;;;;;0.40;0.40;;;;;;;17.35;54.85;96509.38;10332077;28;20125;-22
2022/04/18 11:33:19;;;;;;;0.20;0.20;;;;;;;17.39;54.73;96521.22;10331271;28;20046;-23
2022/04/18 11:38:25;;;;;;;0.40;0.40;;;;;;;17.37;55.00;96513.63;10331822;28;20030;-23
2022/04/18 11:43:25;;;;;;;0.28;0.28;;;;;;;17.35;54.83;96511.91;10330909;28;20292;-22
2022/04/18 11:48:26;;;;;;;0.10;0.10;;;;;;;17.36;54.74;96506.03;10335958;28;20044;-25
2022/04/18 11:53:31;;;;;;;0.10;0.10;;;;;;;17.34;54.95;96503.47;10371283;28;20045;-23
2022/04/18 11:58:36;;;;;;;0.30;0.30;;;;;;;17.34;54.79;96495.03;10342004;28;20038;-23
2022/04/18 12:08:56;;;;;;;0.20;0.20;;;;;;;17.34;54.80;96484.94;10356812;28;20095;-22
2022/04/18 12:13:59;;;;;;;2.95;0.60;;;;;;;17.35;56.15;96472.28;10369107;28;20116;-23
2022/04/18 12:18:59;;;;;;;2.33;0.50;;;;;;;17.01;55.38;96478.16;10354129;28;20484;-23
2022/04/18 12:24:00;;;;;;;0.63;0.20;;;;;;;16.60;54.93;96470.47;10361816;28;20050;-22
2022/04/18 12:29:09;;;;;;;1.52;0.60;;;;;;;16.47;52.22;96471.25;10328574;28;20034;-22
2022/04/18 12:34:19;;;;;;;1.45;0.90;;;;;;;16.46;50.61;96472.91;10328475;28;20148;-22
2022/04/18 12:39:21;;;;;;;2.45;1.15;;;;;;;16.24;49.63;96458.50;10327886;28;20170;-22
2022/04/18 12:44:21;;;;;;;1.75;1.25;;;;;;;16.33;49.67;96453.47;10328418;28;20455;-25
2022/04/18 12:49:22;;;;;;;2.08;1.23;;;;;;;16.42;46.11;96458.59;10329156;28;20113;-24
2022/04/18 12:54:24;;;;;;;3.30;1.03;;;;;;;16.42;47.15;96445.09;10328138;28;20030;-23
2022/04/18 12:59:30;;;;;;;2.65;1.30;;;;;;;16.27;48.21;96445.88;10327776;28;20038;-23
2022/04/18 13:04:30;;;;;;;2.03;1.40;;;;;;;16.34;45.03;96432.41;10327572;28;20031;-23
2022/04/18 13:09:31;;;;;;;12.53;1.93;;;;;;;16.63;45.71;96428.31;10341645;28;20572;-23
2022/04/18 13:14:32;;;;;;;2.03;1.20;;;;;;;16.19;47.74;96429.81;10344591;28;20100;-23
2022/04/18 13:19:33;;;;;;;7.75;1.75;;;;;;;16.50;47.41;96424.09;10327077;28;20038;-23
2022/04/18 13:24:34;;;;;;;2.75;1.15;;;;;;;16.48;45.48;96408.09;10327193;28;20481;-23
2022/04/18 13:29:34;;;;;;;2.77;1.10;;;;;;;16.30;46.83;96395.34;10327519;28;20042;-23
2022/04/18 13:34:34;;;;;;;3.40;2.03;;;;;;;16.33;46.40;96402.09;10334550;28;20670;-22
2022/04/18 13:39:35;;;;;;;1.87;1.50;;;;;;;16.43;45.25;96396.25;10367190;28;20092;-23
2022/04/18 13:44:35;;;;;;;3.43;1.60;;;;;;;16.58;44.60;96393.78;10375078;28;20402;-23
2022/04/18 13:49:37;;;;;;;3.28;1.50;;;;;;;16.45;46.77;96397.97;10362927;28;20381;-23
2022/04/18 13:54:38;;;;;;;1.92;1.13;;;;;;;16.44;47.51;96390.41;10395371;28;20033;-22
2022/04/18 13:59:38;;;;;;;4.35;3.17;;;;;;;16.50;44.66;96387.84;10385520;28;20065;-23
2022/04/18 14:04:39;;;;;;;3.37;1.70;;;;;;;16.45;46.36;96380.28;10360900;28;20033;-23
2022/04/18 14:09:39;;;;;;;8.83;2.63;;;;;;;16.38;44.41;96378.56;10358851;28;20377;-22
2022/04/18 14:25:19;;;;;;;5.90;3.70;;;;;;;16.32;47.02;96375.16;10382619;28;20044;-22
2022/04/18 14:30:19;;;;;;;8.27;4.68;;;;;;;16.18;44.15;96367.53;10375217;28;20034;-22
2022/04/18 14:35:23;;;;;;;5.60;3.83;;;;;;;16.35;44.13;96363.38;10351488;28;20042;-22
2022/04/18 14:40:23;;;;;;;8.00;2.95;;;;;;;16.53;43.23;96344.94;10333641;28;20398;-22
2022/04/18 14:45:23;;;;;;;4.70;3.27;;;;;;;16.78;44.85;96350.00;10368388;28;20067;-22
2022/04/18 14:50:24;;;;;;;5.37;3.20;;;;;;;16.85;45.90;96352.53;10365852;28;20049;-23
2022/04/18 14:55:24;;;;;;;5.10;3.43;;;;;;;16.89;46.51;96350.88;10373216;28;20048;-23
2022/04/18 15:00:24;;;;;;;20.53;3.10;;;;;;;16.90;46.62;96350.84;10349132;28;20831;-22
2022/04/18 15:05:25;;;;;;;9.57;2.77;;;;;;;16.85;46.74;96331.47;10350497;28;20405;-22
2022/04/18 15:10:28;;;;;;;9.33;3.00;;;;;;;16.92;47.13;96349.16;10344739;28;20038;-21
2022/04/18 15:15:29;;;;;;;8.13;2.00;;;;;;;16.90;47.57;96343.25;10362041;28;20038;-23
2022/04/18 15:20:29;;;;;;;7.63;4.53;;;;;;;17.06;47.84;96344.94;10349674;28;20504;-23
2022/04/18 15:25:30;;;;;;;10.15;5.28;;;;;;;17.23;46.53;96323.00;10331445;28;20286;-23
2022/04/18 15:35:49;;;;;;;6.20;2.80;;;;;;;17.24;47.77;96339.88;10336743;28;20042;-22
2022/04/18 15:40:49;;;;;;;8.32;3.47;;;;;;;17.31;47.45;96335.66;10331535;28;20207;-22
2022/04/18 15:45:50;;;;;;;5.73;3.03;;;;;;;17.22;48.57;96338.19;10331001;28;20485;-23
2022/04/18 15:50:50;;;;;;;10.97;3.53;;;;;;;17.45;47.72;96344.09;10328601;28;20034;-23
2022/04/18 15:55:51;;;;;;;6.47;2.50;;;;;;;17.16;48.70;96339.03;10363452;28;20300;-23
2022/04/18 16:00:51;;;;;;;4.80;2.42;;;;;;;17.13;48.62;96335.66;10343795;28;20034;-23
2022/04/18 16:05:52;;;;;;;6.13;2.80;;;;;;;17.12;48.76;96341.56;10341233;28;20508;-24
2022/04/18 16:10:52;;;;;;;4.38;2.17;;;;;;;17.11;48.84;96333.16;10369846;28;20034;-21
2022/04/18 16:15:56;;;;;;;2.87;2.37;;;;;;;17.09;48.72;96329.75;10368618;28;20046;-21
2022/04/18 16:20:56;;;;;;;6.03;3.38;;;;;;;17.04;48.85;96323.03;10344706;28;20034;-20
2022/04/18 16:25:57;;;;;;;6.60;3.60;;;;;;;17.03;49.22;96323.88;10327759;28;20030;-21
2022/04/18 16:36:16;;;;;;;5.05;3.00;;;;;;;16.90;49.41;96304.50;10332440;28;20125;-22
2022/04/18 16:46:49;;;;;;;6.38;2.22;;;;;;;17.44;49.46;96315.41;10362412;28;20325;-21
2022/04/18 16:51:49;;;;;;;4.43;2.10;;;;;;;17.28;49.64;96321.31;10354272;28;20597;-21
2022/04/18 16:56:49;;;;;;;5.37;2.20;;;;;;;17.13;49.57;96308.69;10356413;28;20037;-24
2022/04/18 17:01:50;;;;;;;2.57;1.93;;;;;;;17.07;49.65;96308.69;10369781;28;20512;-22
2022/04/18 17:06:50;;;;;;;21.27;4.43;;;;;;;17.21;49.27;96306.13;10361106;28;20124;-21
2022/04/18 17:11:50;;;;;;;5.53;1.92;;;;;;;17.17;49.35;96307.00;10364294;28;20169;-22
2022/04/18 17:16:51;;;;;;;9.00;3.03;;;;;;;17.28;49.80;96306.16;10404310;28;20041;-21
2022/04/18 17:21:53;;;;;;;7.57;2.77;;;;;;;17.25;49.49;96300.25;10327385;28;20068;-21
2022/04/18 17:26:54;;;;;;;3.67;2.72;;;;;;;17.26;49.63;96317.09;10360403;28;20068;-22
2022/04/18 17:31:54;;;;;;;6.75;2.47;;;;;;;17.26;49.86;96309.50;10340659;28;20029;-21
2022/04/18 17:36:55;;;;;;;7.13;2.90;;;;;;;17.27;49.99;96303.59;10363187;28;20038;-21
2022/04/18 17:41:55;;;;;;;14.23;5.07;;;;;;;17.41;50.05;96312.06;10365513;28;20412;-21
2022/04/18 17:46:55;;;;;;;9.40;3.23;;;;;;;17.45;50.00;96313.72;10328898;28;20038;-22
2022/04/18 17:51:56;;;;;;;9.30;2.43;;;;;;;17.39;49.90;96313.72;10368467;28;20300;-21
2022/04/18 17:56:56;;;;;;;5.20;2.57;;;;;;;17.36;50.00;96318.81;10370746;28;20039;-21
2022/04/18 18:01:59;;;;;;;7.53;2.53;;;;;;;17.36;50.15;96326.38;10375609;28;20480;-22
2022/04/18 18:07:00;;;;;;;5.60;2.00;;;;;;;17.34;50.00;96328.06;10343082;28;20036;-22
2022/04/18 18:12:00;;;;;;;3.25;2.10;;;;;;;17.35;50.17;96329.75;10368620;28;20048;-21
2022/04/18 18:17:00;;;;;;;3.90;2.00;;;;;;;17.34;50.32;96336.47;10354008;28;20381;-21
2022/04/18 18:22:01;;;;;;;4.10;1.93;;;;;;;17.31;50.49;96331.44;10361373;28;20299;-23
2022/04/18 18:27:01;;;;;;;2.70;1.83;;;;;;;17.32;50.36;96342.41;10367695;28;20038;-22
2022/04/18 18:32:02;;;;;;;2.80;1.75;;;;;;;17.31;50.25;96350.84;10360653;28;20117;-21
2022/04/18 18:37:02;;;;;;;11.50;2.95;;;;;;;17.32;50.42;96352.53;10361582;28;20468;-22
2022/04/18 18:42:03;;;;;;;6.50;1.90;;;;;;;17.32;50.56;96355.88;10371909;28;20065;-21
2022/04/18 18:47:03;;;;;;;5.55;2.70;;;;;;;17.45;50.75;96354.22;10370749;28;20036;-22
2022/04/18 18:52:23;;;;;;;10.63;3.00;;;;;;;17.54;50.75;96361.78;10343942;28;20037;-21
2022/04/18 18:57:23;;;;;;;4.53;1.58;;;;;;;17.44;50.67;96360.97;10367342;28;20057;-21
2022/04/18 19:02:24;;;;;;;3.47;1.80;;;;;;;17.39;50.61;96370.25;10365556;28;20452;-22
2022/04/18 19:07:28;;;;;;;9.20;2.65;;;;;;;17.41;50.78;96372.78;10334001;28;20042;-22
2022/04/18 19:12:30;;;;;;;8.55;1.83;;;;;;;17.30;50.73;96369.38;10355233;28;20467;-22
2022/04/18 19:28:09;;;;;;;3.33;1.85;;;;;;;17.35;50.67;96386.25;10354112;28;20088;-22
2022/04/18 19:33:10;;;;;;;4.13;1.80;;;;;;;17.35;50.61;96398.06;10354055;28;20084;-22
2022/04/18 19:38:10;;;;;;;4.10;1.40;;;;;;;17.34;50.76;96396.38;10356678;28;20100;-22
2022/04/18 19:43:11;;;;;;;3.80;1.43;;;;;;;17.35;50.99;96393.00;10359984;28;20671;-22
2022/04/18 19:48:11;;;;;;;6.20;2.03;;;;;;;17.50;51.18;96393.84;10354702;28;20297;-22
2022/04/18 19:53:13;;;;;;;4.80;2.40;;;;;;;17.56;50.93;96393.00;10349050;28;20065;-22
2022/04/18 19:58:16;;;;;;;4.18;2.03;;;;;;;17.44;50.50;96388.81;10357559;28;20038;-22
2022/04/18 20:03:17;;;;;;;2.88;1.73;;;;;;;17.41;50.54;96398.09;10358082;28;20168;-22
2022/04/18 20:08:18;;;;;;;2.25;1.75;;;;;;;17.39;50.63;96405.66;10361835;28;20030;-22
2022/04/18 20:13:19;;;;;;;1.50;1.30;;;;;;;17.39;50.84;96409.88;10342045;28;20030;-22
2022/04/18 20:18:25;;;;;;;3.83;1.50;;;;;;;17.36;50.96;96403.16;10354903;28;20034;-22
2022/04/18 20:23:27;;;;;;;1.58;1.30;;;;;;;17.36;50.77;96399.75;10367599;28;20041;-22
2022/04/18 20:28:29;;;;;;;2.55;1.70;;;;;;;17.37;50.87;96402.31;10366675;28;20041;-22
2022/04/18 20:33:30;;;;;;;2.85;1.40;;;;;;;17.37;50.80;96396.38;10361423;28;20512;-23
2022/04/18 20:38:30;;;;;;;2.08;1.45;;;;;;;17.35;50.85;96393.84;10364393;28;20040;-22
2022/04/18 20:43:31;;;;;;;2.95;2.10;;;;;;;17.36;50.97;96394.72;10366625;28;20125;-22
2022/04/18 20:48:31;;;;;;;2.30;1.77;;;;;;;17.44;50.20;96387.94;10364525;28;20049;-22
2022/04/18 20:58:51;;;;;;;4.97;1.75;;;;;;;17.54;50.73;96390.47;10360991;28;20037;-22
2022/04/18 21:03:51;;;;;;;1.83;1.15;;;;;;;17.43;50.79;96384.59;10338447;28;20027;-22
2022/04/18 21:08:55;;;;;;;2.77;1.23;;;;;;;17.42;50.61;96384.59;10339026;28;20388;-22
2022/04/18 21:13:56;;;;;;;2.55;1.50;;;;;;;17.39;50.72;96389.63;10367233;28;20525;-23
2022/04/18 21:18:57;;;;;;;2.55;1.60;;;;;;;17.38;50.93;96377.81;10367832;28;20060;-22
2022/04/18 21:23:57;;;;;;;3.00;1.40;;;;;;;17.38;51.12;96377.81;10335419;28;20066;-22
2022/04/18 21:28:58;;;;;;;2.85;1.20;;;;;;;17.38;51.00;96382.88;10328666;28;20041;-22
2022/04/18 21:33:59;;;;;;;3.85;2.00;;;;;;;17.37;50.92;96376.16;10352108;28;20432;-22
2022/04/18 21:39:00;;;;;;;2.53;1.48;;;;;;;17.38;50.93;96380.34;10327314;28;20042;-22
2022/04/18 21:44:01;;;;;;;2.78;1.30;;;;;;;17.37;51.31;96378.69;10326402;28;20557;-22
2022/04/18 21:49:04;;;;;;;4.07;1.58;;;;;;;17.34;51.28;96366.00;10324926;28;20026;-22
2022/04/18 21:54:07;;;;;;;3.58;2.25;;;;;;;17.50;51.88;96376.13;10325502;28;20038;-22
2022/04/18 21:59:08;;;;;;;4.68;2.05;;;;;;;17.55;51.74;96366.84;10350780;28;20069;-21
2022/04/18 22:04:08;;;;;;;2.65;1.40;;;;;;;17.51;51.16;96371.91;10365833;28;20069;-22
2022/04/18 22:09:10;;;;;;;3.47;2.03;;;;;;;17.44;51.33;96365.19;10363450;28;20061;-22
2022/04/18 22:14:11;;;;;;;2.22;1.42;;;;;;;17.42;51.36;96364.34;10364316;28;20338;-22
2022/04/18 22:29:49;;;;;;;3.28;1.55;;;;;;;17.38;51.27;96350.00;10341575;28;20066;-22
2022/04/18 22:34:50;;;;;;;2.20;1.50;;;;;;;17.38;51.38;96352.53;10329174;28;20117;-22
2022/04/18 22:39:50;;;;;;;2.58;1.67;;;;;;;17.38;51.54;96350.84;10369881;28;20037;-22
2022/04/18 22:44:52;;;;;;;3.33;1.83;;;;;;;17.38;51.47;96343.25;10361463;28;20519;-22
2022/04/18 22:49:53;;;;;;;1.65;1.20;;;;;;;17.39;51.24;96341.56;10349766;28;20046;-22
2022/04/18 22:54:53;;;;;;;4.72;1.83;;;;;;;17.46;53.42;96345.75;10373442;28;20472;-22
2022/04/18 22:59:56;;;;;;;5.50;1.83;;;;;;;17.53;52.89;96338.16;10340967;28;20120;-22
2022/04/18 23:10:16;;;;;;;2.53;1.40;;;;;;;17.48;51.67;96334.78;10393096;28;20033;-22
2022/04/18 23:15:16;;;;;;;2.08;1.50;;;;;;;17.44;51.46;96322.16;10384512;28;20049;-22
2022/04/18 23:20:17;;;;;;;2.05;1.23;;;;;;;17.42;51.20;96321.31;10351351;28;20045;-22
2022/04/18 23:25:18;;;;;;;2.75;1.40;;;;;;;17.41;51.67;96322.19;10331887;28;20034;-22
2022/04/18 23:30:18;;;;;;;3.33;1.48;;;;;;;17.40;51.55;96310.38;10367055;28;20488;-22
2022/04/18 23:35:18;;;;;;;1.80;1.38;;;;;;;17.40;51.69;96300.25;10349837;28;20166;-23
2022/04/18 23:45:38;;;;;;;2.85;1.23;;;;;;;17.40;51.72;96290.94;10331248;28;20127;-22
2022/04/18 23:50:49;;;;;;;1.60;1.10;;;;;;;17.40;51.39;96290.13;10331446;28;20100;-22
2022/04/18 23:55:52;;;;;;;3.20;1.17;;;;;;;17.40;51.58;96287.59;10331122;28;20034;-22
